Time;durP1;ratioP1;P1;durP2;ratioP2;P2;SDS_P1;SDS_P2;PMS_P1;PMS_P2;Temp;Humidity;BMP_temperature;BMP_pressure;BME280_temperature;BME280_humidity;BME280_pressure;Samples;Min_cycle;Max_cycle;Signal;HPM_P1;HPM_P2
2022/09/06 00:00:37;;;;;;;15.00;6.43;;;;;;;33.88;26.54;100303.22;5053696;28;20478;-53
2022/09/06 00:03:04;;;;;;;12.75;5.80;;;;;;;33.68;26.95;100301.75;5054154;28;20090;-53
2022/09/06 00:05:31;;;;;;;13.25;6.07;;;;;;;33.92;27.09;100292.13;5040376;28;20029;-52
2022/09/06 00:08:00;;;;;;;16.48;5.80;;;;;;;33.43;27.10;100291.09;5034497;28;20028;-53
2022/09/06 00:10:27;;;;;;;12.90;6.10;;;;;;;33.27;27.26;100290.44;5034396;28;20038;-52
2022/09/06 00:12:54;;;;;;;15.95;6.43;;;;;;;33.16;28.23;100295.81;5039453;28;20033;-54
2022/09/06 00:15:21;;;;;;;15.13;5.55;;;;;;;33.05;29.00;100294.84;5040832;28;20067;-54
2022/09/06 00:17:50;;;;;;;11.05;5.45;;;;;;;33.34;28.90;100291.31;5044878;28;20033;-54
2022/09/06 00:20:16;;;;;;;16.85;5.53;;;;;;;33.11;29.07;100290.56;5050612;28;20036;-54
2022/09/06 00:22:43;;;;;;;11.82;5.30;;;;;;;33.45;28.67;100279.63;5048089;28;20033;-51
2022/09/06 00:25:09;;;;;;;14.98;5.75;;;;;;;33.09;28.22;100284.56;5053521;28;20047;-52
2022/09/06 00:27:35;;;;;;;15.27;6.50;;;;;;;33.15;28.41;100274.78;5041457;28;20021;-52
2022/09/06 00:30:03;;;;;;;24.35;19.02;;;;;;;32.93;28.88;100278.41;5033513;28;20411;-52
2022/09/06 00:32:29;;;;;;;31.10;22.92;;;;;;;32.52;29.28;100261.41;5035407;28;20025;-53
2022/09/06 00:34:56;;;;;;;51.75;39.90;;;;;;;32.17;29.31;100267.88;5047389;28;20036;-52
2022/09/06 00:37:22;;;;;;;53.13;35.97;;;;;;;31.99;30.29;100272.25;5033877;28;20068;-52
2022/09/06 00:39:48;;;;;;;33.03;23.20;;;;;;;32.14;30.05;100274.13;5033997;28;20476;-53
2022/09/06 00:42:14;;;;;;;42.38;25.90;;;;;;;31.75;30.79;100284.38;5039965;28;20029;-52
2022/09/06 00:44:40;;;;;;;43.25;26.70;;;;;;;31.70;31.77;100279.91;5039934;28;20026;-48
2022/09/06 00:47:07;;;;;;;41.35;22.85;;;;;;;31.76;31.31;100286.78;5041904;28;20033;-51
2022/09/06 00:49:39;;;;;;;31.08;11.77;;;;;;;31.66;32.11;100275.50;5050807;28;20197;-53
2022/09/06 00:52:09;;;;;;;18.63;7.97;;;;;;;31.33;32.69;100284.22;5041443;28;20032;-55
2022/09/06 00:54:37;;;;;;;17.67;8.57;;;;;;;30.87;32.95;100281.09;5048487;28;20090;-55
2022/09/06 00:57:03;;;;;;;16.33;6.60;;;;;;;30.77;32.89;100285.22;5038714;28;20052;-57
2022/09/06 00:59:33;;;;;;;13.88;5.50;;;;;;;30.38;34.20;100279.44;5050527;28;20025;-54
2022/09/06 01:01:59;;;;;;;19.10;6.38;;;;;;;30.53;33.79;100288.06;5041594;28;20025;-52
2022/09/06 01:04:26;;;;;;;15.65;6.10;;;;;;;30.43;33.82;100287.47;5045464;28;20493;-51
2022/09/06 01:07:29;;;;;;;19.08;6.18;;;;;;;30.06;34.43;100288.75;5041381;28;20036;-52
2022/09/06 01:10:17;;;;;;;13.98;5.95;;;;;;;30.04;35.67;100282.75;5036638;28;20402;-51
2022/09/06 01:13:21;;;;;;;17.95;6.40;;;;;;;30.07;35.00;100290.34;5033036;28;20119;-52
2022/09/06 01:16:02;;;;;;;14.20;5.95;;;;;;;29.40;35.94;100289.88;4992613;28;20040;-53
2022/09/06 01:18:50;;;;;;;20.80;6.40;;;;;;;28.66;36.67;100287.06;5034248;28;20033;-54
2022/09/06 01:21:16;;;;;;;19.92;5.97;;;;;;;28.97;37.32;100291.25;5051376;28;20114;-53
2022/09/06 01:24:19;;;;;;;14.75;6.97;;;;;;;28.58;37.80;100298.16;5052749;28;20033;-54
2022/09/06 01:27:19;;;;;;;18.15;6.40;;;;;;;28.43;37.85;100302.38;5048478;28;20068;-52
2022/09/06 01:30:04;;;;;;;23.73;6.65;;;;;;;28.59;37.07;100299.75;5042375;28;20083;-52
2022/09/06 01:33:01;;;;;;;17.30;5.90;;;;;;;28.52;36.74;100302.28;5035924;28;20086;-52
2022/09/06 01:35:30;;;;;;;17.20;6.20;;;;;;;28.20;37.01;100303.84;5039517;28;20049;-54
2022/09/06 01:37:57;;;;;;;19.20;6.55;;;;;;;28.02;38.11;100309.50;5052282;28;20028;-53
2022/09/06 01:40:23;;;;;;;20.73;6.32;;;;;;;27.78;38.50;100315.69;5051851;28;20036;-52
2022/09/06 01:42:52;;;;;;;20.35;6.90;;;;;;;27.48;39.62;100311.31;5046565;28;20037;-53
2022/09/06 01:45:22;;;;;;;19.02;6.13;;;;;;;27.36;39.22;100301.03;5031405;28;20025;-51
2022/09/06 01:48:06;;;;;;;18.48;5.80;;;;;;;27.31;39.68;100306.69;5032599;28;20382;-52
2022/09/06 01:50:41;;;;;;;21.27;6.70;;;;;;;26.96;40.90;100309.59;5032212;28;20121;-52
2022/09/06 01:53:29;;;;;;;19.73;6.75;;;;;;;27.00;40.88;100307.78;5032467;28;20439;-52
2022/09/06 01:56:00;;;;;;;21.15;6.57;;;;;;;27.12;40.29;100309.06;5032214;28;20026;-53
2022/09/06 01:58:44;;;;;;;19.02;6.82;;;;;;;26.87;39.55;100310.75;5032237;28;20387;-51
2022/09/06 02:01:29;;;;;;;17.97;6.17;;;;;;;26.79;39.95;100315.13;5031858;28;20057;-53
2022/09/06 02:04:05;;;;;;;22.80;6.25;;;;;;;26.71;40.21;100319.53;5032483;28;20271;-48
2022/09/06 02:06:46;;;;;;;17.38;6.18;;;;;;;26.74;40.24;100313.38;5032229;28;20112;-51
2022/09/06 02:09:21;;;;;;;18.08;6.97;;;;;;;26.51;40.77;100329.25;5032040;28;20468;-50
2022/09/06 02:11:54;;;;;;;19.58;6.60;;;;;;;26.41;41.46;100318.59;5044134;28;20065;-52
2022/09/06 02:14:28;;;;;;;18.05;6.90;;;;;;;26.16;41.51;100327.63;5046042;28;20036;-52
2022/09/06 02:16:57;;;;;;;18.47;7.07;;;;;;;26.09;41.77;100328.09;5030111;28;20116;-52
2022/09/06 02:19:42;;;;;;;21.45;6.65;;;;;;;25.84;41.87;100332.44;5030410;28;20025;-56
2022/09/06 02:22:14;;;;;;;21.25;6.70;;;;;;;25.86;41.60;100334.84;5031960;28;20018;-52
2022/09/06 02:24:43;;;;;;;14.98;6.70;;;;;;;25.87;41.57;100334.53;5031901;28;20029;-52
2022/09/06 02:27:11;;;;;;;18.88;6.57;;;;;;;25.41;42.11;100333.13;5035989;28;20037;-51
2022/09/06 02:29:38;;;;;;;22.88;7.15;;;;;;;25.41;42.44;100329.56;5035420;28;20049;-52
2022/09/06 02:32:11;;;;;;;17.55;6.97;;;;;;;25.19;43.01;100331.25;5037484;28;20048;-54
2022/09/06 02:34:42;;;;;;;19.85;6.43;;;;;;;24.91;43.70;100329.81;5047500;28;20043;-51
2022/09/06 02:37:10;;;;;;;17.48;5.80;;;;;;;24.66;44.61;100329.38;5031730;28;20476;-50
2022/09/06 02:39:37;;;;;;;20.15;6.85;;;;;;;24.51;44.72;100331.69;5033670;28;20034;-52
2022/09/06 02:42:04;;;;;;;17.83;6.05;;;;;;;24.60;44.44;100336.09;5050869;28;20263;-54
2022/09/06 02:44:31;;;;;;;18.55;6.63;;;;;;;24.31;45.17;100343.88;5051222;28;20040;-54
2022/09/06 02:46:57;;;;;;;21.35;8.13;;;;;;;24.19;45.59;100341.69;5049706;28;20029;-52
2022/09/06 02:49:24;;;;;;;19.23;6.82;;;;;;;24.22;45.18;100347.38;5035783;28;20028;-51
2022/09/06 02:51:50;;;;;;;15.38;6.22;;;;;;;24.27;45.46;100342.91;5035545;28;20032;-52
2022/09/06 02:54:16;;;;;;;20.65;7.57;;;;;;;24.16;46.52;100348.59;5035063;28;20133;-52
2022/09/06 02:56:43;;;;;;;24.27;6.57;;;;;;;24.07;46.44;100346.91;5036208;28;20056;-54
2022/09/06 02:59:09;;;;;;;19.92;7.18;;;;;;;24.13;46.10;100351.13;5040454;28;20483;-53
2022/09/06 03:01:35;;;;;;;20.00;6.97;;;;;;;24.08;46.28;100348.50;5052901;28;20040;-54
2022/09/06 03:04:02;;;;;;;16.00;6.00;;;;;;;24.47;45.46;100356.91;5035371;28;20036;-55
2022/09/06 03:06:29;;;;;;;16.45;6.97;;;;;;;24.33;45.32;100356.13;5035788;28;20029;-53
2022/09/06 03:08:55;;;;;;;22.10;7.10;;;;;;;24.30;45.71;100367.69;5035474;28;20112;-53
2022/09/06 03:11:21;;;;;;;17.63;6.80;;;;;;;24.26;45.93;100363.94;5054671;28;20029;-53
2022/09/06 03:13:49;;;;;;;21.50;7.32;;;;;;;24.03;46.69;100368.56;5049467;28;20044;-54
2022/09/06 03:16:16;;;;;;;19.75;6.28;;;;;;;24.25;46.29;100378.75;5035780;28;20052;-53
2022/09/06 03:18:42;;;;;;;21.42;6.82;;;;;;;24.26;45.95;100376.81;5048993;28;20037;-52
2022/09/06 03:21:08;;;;;;;21.38;7.35;;;;;;;23.91;46.89;100374.56;5053347;28;20017;-52
2022/09/06 03:23:35;;;;;;;17.33;6.40;;;;;;;23.81;46.99;100380.25;5039176;28;20033;-52
2022/09/06 03:26:01;;;;;;;21.25;6.80;;;;;;;23.83;47.26;100383.50;5037015;28;20079;-52
2022/09/06 03:28:27;;;;;;;18.10;6.57;;;;;;;23.89;46.90;100387.75;5044280;28;20127;-51
2022/09/06 03:30:53;;;;;;;35.78;7.43;;;;;;;23.81;46.76;100388.44;5052378;28;20062;-50
2022/09/06 03:33:20;;;;;;;24.98;8.15;;;;;;;24.02;46.53;100401.69;5054118;28;20032;-52
2022/09/06 03:35:57;;;;;;;19.67;6.95;;;;;;;24.01;46.44;100405.53;5044041;28;20037;-52
2022/09/06 03:38:25;;;;;;;20.85;7.60;;;;;;;24.04;46.26;100413.94;5034562;28;20476;-52
2022/09/06 03:40:51;;;;;;;36.58;17.02;;;;;;;24.14;45.59;100394.56;5034554;28;20430;-53
2022/09/06 03:43:19;;;;;;;48.92;23.08;;;;;;;23.80;46.66;100408.69;5053516;28;20028;-51
2022/09/06 03:45:47;;;;;;;47.78;25.38;;;;;;;23.82;47.04;100411.13;5049023;28;20033;-51
2022/09/06 03:48:15;;;;;;;48.72;24.55;;;;;;;23.90;46.46;100422.16;5047940;28;20462;-52
2022/09/06 03:50:50;;;;;;;57.72;28.33;;;;;;;23.62;46.73;100406.84;5045523;28;20446;-50
2022/09/06 03:53:17;;;;;;;53.42;27.95;;;;;;;23.73;46.40;100419.22;5048093;28;20032;-51
2022/09/06 03:55:45;;;;;;;55.97;29.08;;;;;;;23.71;46.62;100418.75;5054605;28;20028;-52
2022/09/06 03:58:11;;;;;;;70.70;33.15;;;;;;;23.88;46.22;100427.13;5052966;28;20032;-51
2022/09/06 04:00:38;;;;;;;72.63;32.97;;;;;;;23.98;45.87;100426.09;5053198;28;20025;-52
2022/09/06 04:03:05;;;;;;;58.72;27.58;;;;;;;23.72;46.21;100430.47;5040434;28;20036;-51
2022/09/06 04:05:31;;;;;;;63.05;25.95;;;;;;;23.96;46.04;100431.06;5034190;28;20040;-51
2022/09/06 04:07:57;;;;;;;42.22;14.90;;;;;;;23.91;46.08;100436.63;5041240;28;20021;-50
2022/09/06 04:10:23;;;;;;;26.15;10.35;;;;;;;23.88;46.03;100435.31;5034639;28;20029;-51
2022/09/06 04:12:49;;;;;;;21.23;9.13;;;;;;;23.92;46.02;100440.97;5039402;28;20107;-52
2022/09/06 04:15:16;;;;;;;27.00;8.65;;;;;;;23.88;46.47;100440.00;5040863;28;20025;-51
2022/09/06 04:17:46;;;;;;;24.55;8.55;;;;;;;23.75;46.58;100438.84;5034387;28;20491;-51
2022/09/06 04:20:13;;;;;;;23.00;7.90;;;;;;;23.67;46.78;100442.31;5033819;28;20144;-52
2022/09/06 04:22:39;;;;;;;20.27;7.53;;;;;;;23.43;47.19;100439.72;5041522;28;20033;-52
2022/09/06 04:25:06;;;;;;;23.52;6.50;;;;;;;23.60;46.82;100450.88;5053991;28;20033;-52
2022/09/06 04:27:32;;;;;;;27.85;7.05;;;;;;;23.40;47.24;100454.78;5052127;28;20029;-52
2022/09/06 04:29:59;;;;;;;26.38;7.93;;;;;;;23.26;47.84;100443.03;5053393;28;20517;-52
2022/09/06 04:32:25;;;;;;;24.58;7.32;;;;;;;23.35;47.94;100452.16;5052266;28;20032;-51
2022/09/06 04:34:51;;;;;;;15.80;7.80;;;;;;;23.41;47.85;100455.59;5041878;28;20033;-51
2022/09/06 04:37:18;;;;;;;24.05;8.23;;;;;;;23.13;48.55;100460.19;5053723;28;20379;-51
2022/09/06 04:39:45;;;;;;;23.08;8.23;;;;;;;23.29;48.31;100458.81;5048390;28;20148;-51
2022/09/06 04:42:12;;;;;;;21.60;7.65;;;;;;;23.07;48.37;100466.84;5033292;28;20391;-51
2022/09/06 04:44:38;;;;;;;24.15;7.28;;;;;;;22.99;48.36;100460.16;5048118;28;20040;-51
2022/09/06 04:47:11;;;;;;;24.67;7.75;;;;;;;22.84;49.03;100465.81;5053588;28;20025;-51
2022/09/06 04:49:37;;;;;;;19.58;7.50;;;;;;;22.91;49.31;100464.34;5051952;28;20025;-50
2022/09/06 04:52:04;;;;;;;21.65;8.38;;;;;;;22.63;50.05;100465.31;5052759;28;20039;-51
2022/09/06 04:54:30;;;;;;;21.95;7.50;;;;;;;22.31;50.65;100471.50;5050569;28;20170;-50
2022/09/06 04:56:56;;;;;;;27.73;8.25;;;;;;;22.30;50.52;100464.41;5053308;28;20494;-51
2022/09/06 04:59:23;;;;;;;21.80;7.18;;;;;;;22.23;50.73;100472.16;5046008;28;20036;-51
2022/09/06 05:01:49;;;;;;;24.20;7.07;;;;;;;22.18;50.79;100473.03;5040538;28;20032;-52
2022/09/06 05:04:15;;;;;;;19.17;7.63;;;;;;;21.97;51.68;100475.16;5038761;28;20029;-48
2022/09/06 05:06:42;;;;;;;26.23;8.57;;;;;;;21.80;52.10;100472.09;5053112;28;20029;-51
2022/09/06 05:09:08;;;;;;;24.35;8.38;;;;;;;22.04;51.62;100475.63;5047068;28;20029;-51
2022/09/06 05:11:35;;;;;;;24.80;7.80;;;;;;;22.17;51.25;100474.13;5032943;28;20041;-49
2022/09/06 05:14:01;;;;;;;23.38;7.95;;;;;;;22.00;51.62;100471.84;5035634;28;20043;-51
2022/09/06 05:16:27;;;;;;;26.17;7.28;;;;;;;22.12;51.30;100471.47;5034174;28;20025;-51
2022/09/06 05:18:53;;;;;;;24.23;8.02;;;;;;;22.32;50.84;100484.00;5033364;28;20136;-50
2022/09/06 05:21:20;;;;;;;21.50;8.57;;;;;;;22.03;51.63;100473.97;5052776;28;20563;-51
2022/09/06 05:23:46;;;;;;;26.35;7.88;;;;;;;21.93;52.20;100476.03;5033695;28;20112;-51
2022/09/06 05:26:12;;;;;;;29.83;7.70;;;;;;;22.09;51.74;100469.28;5052653;28;20041;-51
2022/09/06 05:28:38;;;;;;;24.95;7.47;;;;;;;22.01;52.10;100473.47;5052786;28;20449;-51
2022/09/06 05:31:09;;;;;;;22.70;7.45;;;;;;;22.13;51.60;100465.72;5050995;28;20033;-51
2022/09/06 05:33:36;;;;;;;21.65;7.55;;;;;;;22.10;51.74;100462.78;5046563;28;20032;-51
2022/09/06 05:36:06;;;;;;;25.00;8.10;;;;;;;22.10;51.91;100460.06;5052334;28;20024;-51
2022/09/06 05:38:32;;;;;;;22.20;7.90;;;;;;;21.99;52.35;100466.72;5050663;28;20033;-52
2022/09/06 05:40:58;;;;;;;20.77;7.78;;;;;;;22.04;52.11;100461.16;5051240;28;20033;-51
2022/09/06 05:43:24;;;;;;;19.13;7.60;;;;;;;22.11;52.25;100456.22;5052594;28;20531;-51
2022/09/06 05:45:51;;;;;;;21.67;7.25;;;;;;;22.08;52.87;100462.22;5046916;28;20033;-51
2022/09/06 05:48:18;;;;;;;28.92;8.32;;;;;;;22.04;53.52;100461.16;5039081;28;20020;-50
2022/09/06 05:50:44;;;;;;;26.08;8.50;;;;;;;22.09;54.04;100467.38;5049017;28;20558;-51
2022/09/06 05:53:10;;;;;;;23.52;8.50;;;;;;;22.07;53.71;100469.59;5032123;28;20040;-51
2022/09/06 05:55:36;;;;;;;19.27;7.22;;;;;;;21.90;54.06;100482.06;5045975;28;20075;-52
2022/09/06 05:58:02;;;;;;;25.08;8.10;;;;;;;21.98;54.74;100470.50;5034852;28;20076;-51
2022/09/06 06:00:28;;;;;;;27.25;8.00;;;;;;;21.88;55.26;100485.09;5036649;28;20035;-51
2022/09/06 06:02:55;;;;;;;22.98;8.32;;;;;;;21.90;55.49;100488.31;5031969;28;20472;-50
2022/09/06 06:05:21;;;;;;;25.98;8.18;;;;;;;21.66;56.16;100485.59;5031967;28;20040;-51
2022/09/06 06:07:47;;;;;;;31.48;8.98;;;;;;;21.54;56.81;100479.72;5033831;28;20044;-51
2022/09/06 06:10:14;;;;;;;27.65;8.10;;;;;;;21.56;57.35;100477.53;5032485;28;20120;-51
2022/09/06 06:12:41;;;;;;;29.38;9.35;;;;;;;21.60;57.23;100478.59;5038900;28;20073;-51
2022/09/06 06:15:07;;;;;;;23.92;8.30;;;;;;;21.55;57.76;100486.81;5051367;28;20025;-51
2022/09/06 06:17:33;;;;;;;24.35;9.00;;;;;;;21.62;57.62;100481.81;5050572;28;20056;-51
2022/09/06 06:19:59;;;;;;;23.00;8.63;;;;;;;21.46;57.73;100483.06;5049817;28;20025;-49
2022/09/06 06:22:26;;;;;;;28.77;9.20;;;;;;;21.13;58.71;100485.50;5046995;28;20032;-51
2022/09/06 06:24:52;;;;;;;27.83;9.45;;;;;;;21.03;59.00;100480.94;5033142;28;20030;-50
2022/09/06 06:27:18;;;;;;;30.50;9.25;;;;;;;21.15;58.49;100486.03;5034342;28;20483;-51
2022/09/06 06:29:44;;;;;;;24.33;8.32;;;;;;;21.19;58.47;100492.53;5051077;28;20045;-51
2022/09/06 06:32:11;;;;;;;24.40;8.57;;;;;;;21.15;59.02;100490.66;5049171;28;20033;-51
2022/09/06 06:34:37;;;;;;;28.33;8.50;;;;;;;21.32;58.46;100494.63;5031362;28;20026;-52
2022/09/06 06:37:03;;;;;;;35.90;9.85;;;;;;;21.06;59.63;100501.34;5031156;28;20021;-51
2022/09/06 06:39:29;;;;;;;28.88;9.80;;;;;;;21.09;58.92;100493.41;5032048;28;20047;-50
2022/09/06 06:41:55;;;;;;;23.67;9.18;;;;;;;21.15;58.72;100502.34;5037582;28;20364;-51
2022/09/06 06:44:22;;;;;;;30.15;8.77;;;;;;;21.13;59.42;100501.03;5051398;28;20021;-49
2022/09/06 06:46:48;;;;;;;34.50;9.13;;;;;;;21.07;59.27;100503.78;5043896;28;20033;-49
2022/09/06 06:49:14;;;;;;;35.70;9.32;;;;;;;20.93;60.34;100496.53;5031070;28;20025;-51
2022/09/06 06:51:40;;;;;;;29.00;9.55;;;;;;;20.95;60.25;100494.38;5034645;28;20033;-50
2022/09/06 06:54:07;;;;;;;28.08;8.43;;;;;;;21.03;60.31;100501.91;5051600;28;20033;-51
2022/09/06 06:56:39;;;;;;;27.27;8.65;;;;;;;20.90;60.62;100494.41;5049124;28;20061;-50
2022/09/06 06:59:06;;;;;;;31.80;9.55;;;;;;;20.93;60.32;100497.38;5031810;28;20030;-51
2022/09/06 07:01:34;;;;;;;30.42;8.68;;;;;;;21.01;60.04;100496.75;5031478;28;20041;-48
2022/09/06 07:04:01;;;;;;;27.63;9.50;;;;;;;20.98;60.06;100499.22;5051116;28;20091;-50
2022/09/06 07:06:27;;;;;;;26.92;8.65;;;;;;;20.77;60.46;100504.81;5040851;28;20053;-48
2022/09/06 07:08:57;;;;;;;24.52;9.35;;;;;;;20.78;60.66;100503.72;5031347;28;20025;-49
2022/09/06 07:11:23;;;;;;;27.50;8.52;;;;;;;20.94;59.99;100500.91;5034821;28;20018;-49
2022/09/06 07:13:49;;;;;;;25.73;8.43;;;;;;;20.87;60.64;100501.19;5031089;28;20472;-51
2022/09/06 07:16:19;;;;;;;31.27;9.13;;;;;;;20.95;60.42;100497.09;5037687;28;20078;-51
2022/09/06 07:18:46;;;;;;;30.98;8.73;;;;;;;21.01;59.70;100496.75;5051131;28;20033;-51
2022/09/06 07:21:13;;;;;;;27.40;8.18;;;;;;;21.09;59.09;100498.03;5050019;28;20029;-51
2022/09/06 07:23:40;;;;;;;30.73;9.63;;;;;;;21.00;59.49;100494.31;5051213;28;20025;-51
2022/09/06 07:26:06;;;;;;;26.65;8.75;;;;;;;21.07;58.72;100492.91;5032336;28;20395;-50
2022/09/06 07:28:33;;;;;;;29.98;8.93;;;;;;;20.92;59.84;100498.44;5031197;28;20061;-51
2022/09/06 07:30:59;;;;;;;30.80;9.80;;;;;;;20.76;60.12;100505.91;5045734;28;20497;-50
2022/09/06 07:33:27;;;;;;;27.42;8.98;;;;;;;20.92;59.42;100501.16;5054277;28;20052;-51
2022/09/06 07:36:01;;;;;;;28.27;8.57;;;;;;;20.98;60.04;100501.94;5039569;28;20037;-51
2022/09/06 07:38:28;;;;;;;35.15;8.73;;;;;;;20.92;60.25;100498.44;5034794;28;20438;-51
2022/09/06 07:40:57;;;;;;;26.02;8.32;;;;;;;20.77;60.28;100499.38;5047519;28;20190;-51
2022/09/06 07:43:24;;;;;;;26.45;9.60;;;;;;;20.75;60.17;100500.75;5054929;28;20040;-50
2022/09/06 07:46:07;;;;;;;26.70;8.85;;;;;;;20.66;60.73;100497.81;5053443;28;20070;-49
2022/09/06 07:48:36;;;;;;;31.15;9.32;;;;;;;20.85;59.96;100497.16;5055174;28;20063;-51
2022/09/06 07:51:11;;;;;;;30.17;9.25;;;;;;;20.79;61.01;100501.81;5050827;28;20029;-51
2022/09/06 07:53:39;;;;;;;23.88;8.40;;;;;;;20.81;60.82;100505.06;5037327;28;20036;-51
2022/09/06 07:56:07;;;;;;;27.77;9.55;;;;;;;20.87;60.10;100505.81;5047595;28;20025;-51
2022/09/06 07:58:35;;;;;;;29.85;9.05;;;;;;;20.66;60.69;100508.69;5054138;28;20044;-51
2022/09/06 08:01:22;;;;;;;30.48;9.45;;;;;;;20.71;60.41;100505.94;5052079;28;20029;-51
2022/09/06 08:03:48;;;;;;;29.63;8.52;;;;;;;20.76;59.90;100507.81;5040720;28;20388;-50
2022/09/06 08:06:14;;;;;;;24.15;8.15;;;;;;;20.68;60.26;100514.66;5039670;28;20110;-48
2022/09/06 08:08:41;;;;;;;29.60;8.68;;;;;;;20.63;61.07;100514.69;5036230;28;20037;-51
2022/09/06 08:11:08;;;;;;;31.08;8.77;;;;;;;20.72;61.16;100518.44;5053882;28;20021;-51
2022/09/06 08:13:36;;;;;;;26.98;8.23;;;;;;;20.55;62.28;100510.66;5040358;28;20046;-50
2022/09/06 08:16:05;;;;;;;34.40;9.10;;;;;;;20.75;61.65;100522.50;5032228;28;20030;-51
2022/09/06 08:18:33;;;;;;;29.27;8.70;;;;;;;20.67;61.07;100520.38;5033996;28;20083;-51
2022/09/06 08:21:26;;;;;;;25.27;8.63;;;;;;;20.65;60.83;100517.94;5037694;28;20128;-48
2022/09/06 08:23:58;;;;;;;27.60;8.75;;;;;;;20.53;61.04;100517.47;5031708;28;20156;-51
2022/09/06 08:26:26;;;;;;;29.52;9.05;;;;;;;20.63;60.93;100513.88;5049303;28;20029;-48
2022/09/06 08:28:54;;;;;;;22.85;9.30;;;;;;;20.58;61.47;100506.56;5053396;28;20041;-48
2022/09/06 08:31:21;;;;;;;36.42;9.50;;;;;;;20.59;61.46;100512.81;5051497;28;20043;-50
2022/09/06 08:33:47;;;;;;;26.67;8.75;;;;;;;20.63;61.71;100514.69;5053713;28;20028;-50
2022/09/06 08:36:14;;;;;;;25.75;9.60;;;;;;;20.53;62.18;100507.41;5052311;28;20062;-51
2022/09/06 08:38:40;;;;;;;23.25;8.73;;;;;;;20.50;62.07;100504.44;5053839;28;20512;-51
2022/09/06 08:41:21;;;;;;;25.85;8.23;;;;;;;20.39;62.78;100505.56;5042480;28;20032;-49
2022/09/06 08:44:08;;;;;;;33.20;9.57;;;;;;;20.46;62.92;100503.38;5034739;28;20110;-51
2022/09/06 08:46:38;;;;;;;25.85;8.38;;;;;;;20.57;62.11;100510.38;5053232;28;20087;-51
2022/09/06 08:49:08;;;;;;;31.05;9.80;;;;;;;20.70;61.46;100512.47;5046887;28;20021;-49
2022/09/06 08:51:38;;;;;;;28.75;8.95;;;;;;;20.60;61.56;100504.38;5032934;28;20049;-50
2022/09/06 08:54:25;;;;;;;29.02;9.57;;;;;;;20.52;62.00;100497.63;5037147;28;20127;-50
2022/09/06 08:57:30;;;;;;;27.85;8.63;;;;;;;20.58;61.70;100505.75;5051857;28;20483;-51
2022/09/06 09:00:07;;;;;;;30.10;8.80;;;;;;;20.63;61.86;100497.56;5038070;28;20068;-52
2022/09/06 09:02:54;;;;;;;32.30;9.52;;;;;;;20.50;62.26;100496.28;5033021;28;20030;-48
2022/09/06 09:05:40;;;;;;;30.52;9.13;;;;;;;20.51;62.94;100498.72;5046637;28;20035;-51
2022/09/06 09:08:20;;;;;;;30.60;9.63;;;;;;;20.29;64.55;100503.69;5052757;28;20510;-50
2022/09/06 09:10:54;;;;;;;29.67;9.63;;;;;;;20.37;63.71;100505.00;5038162;28;20072;-49
2022/09/06 09:13:45;;;;;;;32.80;9.02;;;;;;;20.30;64.13;100506.13;5032831;28;20040;-50
2022/09/06 09:16:13;;;;;;;29.80;9.32;;;;;;;20.29;63.38;100493.63;5052652;28;20041;-49
2022/09/06 09:18:45;;;;;;;29.33;8.65;;;;;;;20.40;62.74;100491.69;5052785;28;20445;-50
2022/09/06 09:21:11;;;;;;;29.83;8.98;;;;;;;20.14;63.24;100488.25;5050092;28;20100;-49
2022/09/06 09:23:37;;;;;;;30.98;9.68;;;;;;;20.05;64.06;100495.38;5052657;28;20475;-51
2022/09/06 09:26:13;;;;;;;29.88;8.82;;;;;;;20.16;63.51;100499.69;5045996;28;20060;-50
2022/09/06 09:36:45;;;;;;;28.08;8.38;;;;;;;20.24;63.69;100490.94;5024341;28;20048;-50
2022/09/06 09:39:11;;;;;;;29.45;9.57;;;;;;;20.17;64.49;100495.84;5042644;28;20025;-50
2022/09/06 09:41:42;;;;;;;28.70;8.93;;;;;;;20.22;64.12;100498.56;5032135;28;20439;-50
2022/09/06 09:50:53;;;;;;;30.13;8.27;;;;;;;20.13;64.35;100500.22;5045210;28;20060;-49
2022/09/06 09:53:22;;;;;;;37.33;9.05;;;;;;;19.94;65.26;100497.31;5051390;28;20036;-49
2022/09/06 09:55:55;;;;;;;29.25;9.43;;;;;;;19.92;65.08;100491.31;5052065;28;20108;-49
2022/09/06 09:58:35;;;;;;;29.02;8.48;;;;;;;20.08;64.42;100491.28;5050617;28;20039;-51
2022/09/06 10:01:21;;;;;;;32.83;9.45;;;;;;;20.11;64.63;100488.81;5052018;28;20398;-52
2022/09/06 10:03:50;;;;;;;26.77;8.55;;;;;;;20.02;64.65;100490.47;5031981;28;20045;-50
2022/09/06 10:06:25;;;;;;;30.13;8.70;;;;;;;20.02;64.86;100496.72;5031692;28;20034;-52
2022/09/06 10:08:53;;;;;;;28.50;8.43;;;;;;;20.09;64.74;100490.97;5049836;28;20029;-52
2022/09/06 10:11:49;;;;;;;29.77;9.50;;;;;;;20.16;64.35;100488.00;5049126;28;20470;-50
2022/09/06 10:14:26;;;;;;;24.80;7.90;;;;;;;20.36;64.16;100492.50;5051743;28;20032;-51
2022/09/06 10:16:52;;;;;;;30.13;8.55;;;;;;;20.37;63.58;100488.69;5050759;28;20037;-51
2022/09/06 10:19:41;;;;;;;26.83;8.07;;;;;;;20.61;62.99;100492.41;5051314;28;20374;-49
2022/09/06 10:22:25;;;;;;;30.40;8.57;;;;;;;20.69;62.82;100491.81;5046435;28;20054;-51
2022/09/06 10:25:22;;;;;;;27.27;7.70;;;;;;;20.68;62.56;100492.09;5031263;28;20472;-52
2022/09/06 10:28:14;;;;;;;33.22;8.45;;;;;;;20.51;63.00;100496.00;5032131;28;20033;-49
2022/09/06 10:31:06;;;;;;;27.98;8.32;;;;;;;20.46;62.76;100493.31;5031492;28;20048;-50
2022/09/06 10:33:53;;;;;;;20.95;7.45;;;;;;;20.36;62.80;100487.88;5028846;28;20045;-51
2022/09/06 10:36:29;;;;;;;33.33;8.63;;;;;;;20.37;62.57;100486.78;5031762;28;20538;-51
2022/09/06 10:39:02;;;;;;;32.60;8.18;;;;;;;20.35;62.68;100490.88;5032463;28;20040;-49
2022/09/06 10:41:57;;;;;;;31.90;8.82;;;;;;;20.17;63.81;100481.47;5031064;28;20317;-51
2022/09/06 10:44:51;;;;;;;27.63;9.00;;;;;;;19.98;64.60;100489.41;5049381;28;20387;-51
2022/09/06 10:47:17;;;;;;;32.85;8.63;;;;;;;19.93;64.88;100490.25;5049944;28;20091;-52
2022/09/06 10:49:49;;;;;;;28.17;8.68;;;;;;;19.99;64.61;100491.06;5038370;28;20029;-50
2022/09/06 10:52:31;;;;;;;27.95;8.68;;;;;;;20.07;64.73;100495.91;5031471;28;20044;-52
2022/09/06 10:55:04;;;;;;;33.65;9.13;;;;;;;19.80;65.77;100496.25;5049643;28;20057;-52
2022/09/06 10:57:46;;;;;;;31.35;8.85;;;;;;;20.10;65.18;100495.34;5046134;28;20029;-52
2022/09/06 11:00:13;;;;;;;29.25;8.73;;;;;;;20.21;64.77;100490.66;5030724;28;20017;-52
2022/09/06 11:03:09;;;;;;;32.75;8.57;;;;;;;20.21;64.62;100479.78;5031090;28;20029;-52
2022/09/06 11:05:54;;;;;;;26.77;7.80;;;;;;;20.33;64.35;100476.78;5031754;28;20109;-52
2022/09/06 11:08:29;;;;;;;30.05;8.40;;;;;;;20.49;63.97;100490.03;5034691;28;20025;-51
2022/09/06 11:10:55;;;;;;;;;;;;;;;20.61;63.26;100489.69;5034532;28;20032;-48
2022/09/06 11:13:27;;;;;;;23.75;8.13;;;;;;;20.53;63.70;100484.81;5049007;28;20001;-49
2022/09/06 11:16:06;;;;;;;28.02;8.60;;;;;;;20.61;62.87;100486.97;5055139;28;20082;-53
2022/09/06 11:19:01;;;;;;;25.48;7.68;;;;;;;20.64;62.74;100482.88;5053934;28;20095;-50
2022/09/06 11:21:53;;;;;;;27.25;8.25;;;;;;;20.50;63.02;100485.41;5042501;28;20555;-50
2022/09/06 11:24:48;;;;;;;23.27;7.47;;;;;;;20.41;63.11;100485.13;5034858;28;20487;-57
2022/09/06 11:27:30;;;;;;;21.10;6.90;;;;;;;20.62;62.31;100479.63;5034797;28;20053;-53
2022/09/06 11:29:59;;;;;;;21.48;7.13;;;;;;;20.61;62.28;100478.81;5034781;28;20068;-52
2022/09/06 11:32:47;;;;;;;28.73;8.48;;;;;;;20.43;62.85;100477.53;5052585;28;20055;-50
2022/09/06 11:35:31;;;;;;;28.15;8.10;;;;;;;20.46;62.45;100478.91;5044425;28;20037;-47
2022/09/06 11:38:15;;;;;;;33.20;8.63;;;;;;;20.58;61.60;100479.38;5034534;28;20577;-48
2022/09/06 11:41:10;;;;;;;23.13;7.75;;;;;;;20.40;62.27;100488.97;5046242;28;20553;-51
2022/09/06 11:43:47;;;;;;;18.40;6.85;;;;;;;20.43;62.32;100491.13;5045764;28;20052;-52
2022/09/06 11:46:39;;;;;;;25.60;7.72;;;;;;;20.48;62.68;100490.28;5051796;28;20075;-51
2022/09/06 11:49:25;;;;;;;29.55;7.68;;;;;;;20.49;62.81;100489.22;5018999;28;20494;-51
2022/09/06 11:51:51;;;;;;;24.42;7.10;;;;;;;20.47;62.80;100492.19;5054565;28;20073;-51